Time,TemperatureF,DewpointF,PressureIn,WindDirection,WindDirectionDegrees,WindSpeedMPH,WindSpeedGustMPH,Humidity,HourlyPrecipIn,Conditions,Clouds,dailyrainin,SoftwareType,DateUTC
2013-02-27 00:03:00,35.6,35.1,29.87,ESE,112,9.4,-999.0,98,-99.99,,,0.01,Acu-Link.com,2013-02-27 05:03:00,
2013-02-27 00:19:00,35.8,35.3,29.86,SSE,157,3.8,-999.0,98,-99.99,,,0.06,Acu-Link.com,2013-02-27 05:19:00,
2013-02-27 00:34:00,36.0,35.5,29.85,SSW,202,3.8,-999.0,98,-99.99,,,0.07,Acu-Link.com,2013-02-27 05:34:00,
2013-02-27 00:49:00,36.0,35.5,29.86,ESE,112,0.0,-999.0,98,-99.99,,,0.11,Acu-Link.com,2013-02-27 05:49:00,
2013-02-27 01:04:00,36.0,35.5,29.85,ESE,112,3.1,-999.0,98,-99.99,,,0.18,Acu-Link.com,2013-02-27 06:04:00,
2013-02-27 01:19:00,36.1,35.6,29.85,SSW,202,3.8,-999.0,98,-99.99,,,0.24,Acu-Link.com,2013-02-27 06:19:00,
2013-02-27 01:34:00,36.1,35.6,29.83,NE,45,6.3,-999.0,98,-99.99,,,0.26,Acu-Link.com,2013-02-27 06:34:00,
2013-02-27 01:49:00,36.5,36.0,29.84,North,0,2.2,-999.0,98,-99.99,,,0.27,Acu-Link.com,2013-02-27 06:49:00,
2013-02-27 02:05:00,36.5,36.0,29.80,SSE,157,4.3,-999.0,98,-99.99,,,0.28,Acu-Link.com,2013-02-27 07:05:00,
2013-02-27 02:20:00,36.7,36.2,29.79,ESE,112,3.1,-999.0,98,-99.99,,,0.31,Acu-Link.com,2013-02-27 07:20:00,
2013-02-27 02:35:00,36.7,36.2,29.78,SE,135,7.8,-999.0,98,-99.99,,,0.33,Acu-Link.com,2013-02-27 07:35:00,
2013-02-27 02:50:00,36.9,36.3,29.77,ESE,112,2.2,-999.0,98,-99.99,,,0.34,Acu-Link.com,2013-02-27 07:50:00,
2013-02-27 03:05:00,36.9,36.3,29.74,ESE,112,2.7,-999.0,98,-99.99,,,0.40,Acu-Link.com,2013-02-27 08:05:00,
2013-02-27 03:21:00,37.0,36.5,29.73,South,180,2.2,-999.0,98,-99.99,,,0.41,Acu-Link.com,2013-02-27 08:21:00,
2013-02-27 03:36:00,37.4,36.9,29.72,SSE,157,4.7,-999.0,98,-99.99,,,0.44,Acu-Link.com,2013-02-27 08:36:00,
2013-02-27 03:51:00,37.9,37.4,29.70,NE,45,2.7,-999.0,98,-99.99,,,0.47,Acu-Link.com,2013-02-27 08:51:00,
2013-02-27 04:18:00,38.1,37.6,29.70,West,270,3.8,-999.0,98,-99.99,,,0.53,Acu-Link.com,2013-02-27 09:18:00,
2013-02-27 04:33:00,38.8,38.3,29.69,ESE,112,4.3,-999.0,98,-99.99,,,0.58,Acu-Link.com,2013-02-27 09:33:00,
2013-02-27 04:48:00,39.0,38.5,29.69,ESE,112,3.8,-999.0,98,-99.99,,,0.60,Acu-Link.com,2013-02-27 09:48:00,
2013-02-27 05:03:00,39.4,38.9,29.67,ESE,112,3.1,-999.0,98,-99.99,,,0.63,Acu-Link.com,2013-02-27 10:03:00,
2013-02-27 05:18:00,39.9,39.4,29.65,East,90,3.8,-999.0,98,-99.99,,,0.65,Acu-Link.com,2013-02-27 10:18:00,
2013-02-27 05:34:00,40.5,39.9,29.65,SSE,157,4.3,-999.0,98,-99.99,,,0.70,Acu-Link.com,2013-02-27 10:34:00,
2013-02-27 05:49:00,40.6,40.1,29.63,ESE,112,3.1,-999.0,98,-99.99,,,0.77,Acu-Link.com,2013-02-27 10:49:00,
2013-02-27 06:04:00,41.4,40.8,29.62,SE,135,4.7,-999.0,98,-99.99,,,0.80,Acu-Link.com,2013-02-27 11:04:00,
2013-02-27 06:19:00,42.1,41.6,29.61,SE,135,2.2,-999.0,98,-99.99,,,0.81,Acu-Link.com,2013-02-27 11:19:00,
2013-02-27 06:34:00,42.6,42.1,29.60,South,180,5.8,-999.0,98,-99.99,,,0.84,Acu-Link.com,2013-02-27 11:34:00,
2013-02-27 06:49:00,42.8,42.3,29.60,SSE,157,4.7,-999.0,98,-99.99,,,0.84,Acu-Link.com,2013-02-27 11:49:00,
2013-02-27 07:05:00,43.2,42.6,29.58,ENE,67,3.8,-999.0,98,-99.99,,,0.86,Acu-Link.com,2013-02-27 12:05:00,
2013-02-27 07:20:00,43.5,43.0,29.58,ESE,112,8.9,-999.0,98,-99.99,,,0.89,Acu-Link.com,2013-02-27 12:20:00,
2013-02-27 07:35:00,43.9,43.4,29.56,WSW,247,2.2,-999.0,98,-99.99,,,0.91,Acu-Link.com,2013-02-27 12:35:00,
2013-02-27 07:50:00,44.2,43.7,29.55,ESE,112,8.3,-999.0,98,-99.99,,,0.93,Acu-Link.com,2013-02-27 12:50:00,
2013-02-27 08:05:00,44.4,43.9,29.55,West,270,3.1,-999.0,98,-99.99,,,0.93,Acu-Link.com,2013-02-27 13:05:00,
2013-02-27 08:21:00,44.8,44.2,29.55,South,180,2.7,-999.0,98,-99.99,,,0.94,Acu-Link.com,2013-02-27 13:21:00,
2013-02-27 08:36:00,44.8,44.2,29.54,ESE,112,3.8,-999.0,98,-99.99,,,0.96,Acu-Link.com,2013-02-27 13:36:00,
2013-02-27 08:51:00,44.8,44.2,29.53,SE,135,11.9,-999.0,98,-99.99,,,0.96,Acu-Link.com,2013-02-27 13:51:00,
2013-02-27 09:06:00,44.8,44.2,29.52,SE,135,5.8,-999.0,98,-99.99,,,0.97,Acu-Link.com,2013-02-27 14:06:00,
2013-02-27 09:21:00,45.0,44.4,29.52,SSE,157,5.1,-999.0,98,-99.99,,,0.98,Acu-Link.com,2013-02-27 14:21:00,
2013-02-27 09:37:00,45.1,44.6,29.51,West,270,5.8,-999.0,98,-99.99,,,0.98,Acu-Link.com,2013-02-27 14:37:00,
2013-02-27 09:52:00,45.0,44.4,29.51,SSE,157,6.3,-999.0,98,-99.99,,,0.98,Acu-Link.com,2013-02-27 14:52:00,
2013-02-27 10:07:00,45.0,44.4,29.51,South,180,7.4,-999.0,98,-99.99,,,0.98,Acu-Link.com,2013-02-27 15:07:00,
2013-02-27 10:22:00,45.0,44.4,29.50,East,90,3.8,-999.0,98,-99.99,,,0.99,Acu-Link.com,2013-02-27 15:22:00,
2013-02-27 10:38:00,44.8,44.2,29.50,ESE,112,8.3,-999.0,98,-99.99,,,1.00,Acu-Link.com,2013-02-27 15:38:00,
2013-02-27 10:53:00,44.8,44.2,29.48,SSW,202,4.7,-999.0,98,-99.99,,,1.00,Acu-Link.com,2013-02-27 15:53:00,
2013-02-27 11:08:00,44.6,44.1,29.48,SSE,157,2.7,-999.0,98,-99.99,,,1.00,Acu-Link.com,2013-02-27 16:08:00,
2013-02-27 11:23:00,45.0,44.4,29.48,ESE,112,4.3,-999.0,98,-99.99,,,1.00,Acu-Link.com,2013-02-27 16:23:00,
2013-02-27 11:38:00,45.0,44.4,29.48,East,90,3.1,-999.0,98,-99.99,,,1.00,Acu-Link.com,2013-02-27 16:38:00,
2013-02-27 11:54:00,45.1,44.6,29.46,SW,225,0.0,-999.0,98,-99.99,,,1.00,Acu-Link.com,2013-02-27 16:54:00,
2013-02-27 12:09:00,45.3,44.8,29.46,SSE,157,0.0,-999.0,98,-99.99,,,1.00,Acu-Link.com,2013-02-27 17:09:00,
2013-02-27 12:24:00,45.5,45.0,29.45,SW,225,1.6,-999.0,98,-99.99,,,1.00,Acu-Link.com,2013-02-27 17:24:00,
2013-02-27 12:39:00,45.1,44.6,29.45,SSW,202,0.0,-999.0,98,-99.99,,,1.00,Acu-Link.com,2013-02-27 17:39:00,
2013-02-27 12:55:00,45.1,44.6,29.44,ENE,67,5.8,-999.0,98,-99.99,,,1.00,Acu-Link.com,2013-02-27 17:55:00,
2013-02-27 13:10:00,45.0,44.4,29.45,SSE,157,2.7,-999.0,98,-99.99,,,1.00,Acu-Link.com,2013-02-27 18:10:00,
2013-02-27 13:25:00,45.0,44.4,29.45,ESE,112,2.2,-999.0,98,-99.99,,,1.00,Acu-Link.com,2013-02-27 18:25:00,
2013-02-27 13:40:00,45.0,44.4,29.44,ESE,112,0.0,-999.0,98,-99.99,,,1.00,Acu-Link.com,2013-02-27 18:40:00,
2013-02-27 13:55:00,45.1,44.6,29.44,SSW,202,0.0,-999.0,98,-99.99,,,1.00,Acu-Link.com,2013-02-27 18:55:00,
2013-02-27 14:11:00,45.1,44.6,29.45,SSW,202,0.0,-999.0,98,-99.99,,,1.00,Acu-Link.com,2013-02-27 19:11:00,
2013-02-27 14:26:00,45.3,44.8,29.45,SW,225,0.0,-999.0,98,-99.99,,,1.03,Acu-Link.com,2013-02-27 19:26:00,
2013-02-27 14:41:00,45.7,45.1,29.46,South,180,0.0,-999.0,98,-99.99,,,1.03,Acu-Link.com,2013-02-27 19:41:00,
2013-02-27 14:56:00,45.9,45.3,29.46,SSW,202,0.0,-999.0,98,-99.99,,,1.03,Acu-Link.com,2013-02-27 19:56:00,
2013-02-27 15:11:00,46.0,45.5,29.46,WNW,292,0.0,-999.0,98,-99.99,,,1.03,Acu-Link.com,2013-02-27 20:11:00,
2013-02-27 15:27:00,45.9,45.3,29.46,SSW,202,0.0,-999.0,98,-99.99,,,1.03,Acu-Link.com,2013-02-27 20:27:00,
2013-02-27 15:42:00,45.9,45.3,29.48,NW,315,0.0,-999.0,98,-99.99,,,1.03,Acu-Link.com,2013-02-27 20:42:00,
2013-02-27 15:57:00,45.9,45.3,29.48,WNW,292,0.0,-999.0,98,-99.99,,,1.03,Acu-Link.com,2013-02-27 20:57:00,
2013-02-27 16:12:00,45.9,45.3,29.48,NW,315,0.0,-999.0,98,-99.99,,,1.03,Acu-Link.com,2013-02-27 21:12:00,
2013-02-27 16:27:00,45.7,45.1,29.48,West,270,0.0,-999.0,98,-99.99,,,1.03,Acu-Link.com,2013-02-27 21:27:00,
2013-02-27 16:43:00,45.9,45.3,29.50,SSW,202,0.0,-999.0,98,-99.99,,,1.03,Acu-Link.com,2013-02-27 21:43:00,
2013-02-27 16:58:00,45.7,45.1,29.50,ESE,112,0.0,-999.0,98,-99.99,,,1.03,Acu-Link.com,2013-02-27 21:58:00,
2013-02-27 17:13:00,45.7,45.1,29.49,SE,135,0.0,-999.0,98,-99.99,,,1.03,Acu-Link.com,2013-02-27 22:13:00,
2013-02-27 17:28:00,45.5,45.0,29.51,WSW,247,0.0,-999.0,98,-99.99,,,1.03,Acu-Link.com,2013-02-27 22:28:00,
2013-02-27 17:44:00,45.0,44.4,29.52,NNW,337,0.0,-999.0,98,-99.99,,,1.03,Acu-Link.com,2013-02-27 22:44:00,
2013-02-27 17:59:00,44.4,43.9,29.52,West,270,0.0,-999.0,98,-99.99,,,1.03,Acu-Link.com,2013-02-27 22:59:00,
2013-02-27 18:14:00,43.7,43.2,29.53,SSE,157,4.3,-999.0,98,-99.99,,,1.03,Acu-Link.com,2013-02-27 23:14:00,
2013-02-27 18:29:00,42.6,42.1,29.55,SSE,157,1.1,-999.0,98,-99.99,,,1.03,Acu-Link.com,2013-02-27 23:29:00,
2013-02-27 18:44:00,41.7,41.2,29.55,SW,225,2.2,-999.0,98,-99.99,,,1.03,Acu-Link.com,2013-02-27 23:44:00,
2013-02-27 19:00:00,41.2,40.7,29.56,West,270,0.0,-999.0,98,-99.99,,,1.03,Acu-Link.com,2013-02-28 00:00:00,
2013-02-27 19:15:00,40.8,40.3,29.56,West,270,0.0,-999.0,98,-99.99,,,1.03,Acu-Link.com,2013-02-28 00:15:00,
2013-02-27 19:30:00,40.1,39.6,29.57,South,180,0.0,-999.0,98,-99.99,,,1.03,Acu-Link.com,2013-02-28 00:30:00,
2013-02-27 19:45:00,39.2,38.7,29.57,SW,225,0.0,-999.0,98,-99.99,,,1.03,Acu-Link.com,2013-02-28 00:45:00,
2013-02-27 20:00:00,38.3,37.8,29.57,ESE,112,0.0,-999.0,98,-99.99,,,1.03,Acu-Link.com,2013-02-28 01:00:00,
2013-02-27 20:16:00,38.3,37.8,29.58,NW,315,0.0,-999.0,98,-99.99,,,1.03,Acu-Link.com,2013-02-28 01:16:00,
2013-02-27 20:31:00,38.3,37.8,29.59,West,270,0.0,-999.0,98,-99.99,,,1.03,Acu-Link.com,2013-02-28 01:31:00,
2013-02-27 20:46:00,39.2,38.7,29.59,SSE,157,0.0,-999.0,98,-99.99,,,1.03,Acu-Link.com,2013-02-28 01:46:00,
2013-02-27 21:01:00,39.4,38.9,29.59,WNW,292,0.0,-999.0,98,-99.99,,,1.03,Acu-Link.com,2013-02-28 02:01:00,
2013-02-27 21:16:00,39.6,39.0,29.59,South,180,0.0,-999.0,98,-99.99,,,1.03,Acu-Link.com,2013-02-28 02:16:00,
2013-02-27 21:32:00,39.0,38.5,29.59,ESE,112,0.0,-999.0,98,-99.99,,,1.03,Acu-Link.com,2013-02-28 02:32:00,
2013-02-27 21:47:00,37.9,37.4,29.59,SW,225,0.0,-999.0,98,-99.99,,,1.03,Acu-Link.com,2013-02-28 02:47:00,
2013-02-27 22:02:00,37.4,36.9,29.59,SW,225,0.0,-999.0,98,-99.99,,,1.03,Acu-Link.com,2013-02-28 03:02:00,
2013-02-27 22:17:00,37.0,36.5,29.59,SW,225,0.0,-999.0,98,-99.99,,,1.03,Acu-Link.com,2013-02-28 03:17:00,
2013-02-27 22:32:00,36.9,36.3,29.58,SW,225,0.0,-999.0,98,-99.99,,,1.03,Acu-Link.com,2013-02-28 03:32:00,
2013-02-27 22:48:00,36.5,36.0,29.58,SW,225,0.0,-999.0,98,-99.99,,,1.03,Acu-Link.com,2013-02-28 03:48:00,
2013-02-27 23:03:00,36.5,36.0,29.57,SW,225,0.0,-999.0,98,-99.99,,,1.03,Acu-Link.com,2013-02-28 04:03:00,
2013-02-27 23:18:00,36.7,36.2,29.56,SW,225,0.0,-999.0,98,-99.99,,,1.03,Acu-Link.com,2013-02-28 04:18:00,
2013-02-27 23:33:00,37.6,37.1,29.54,ESE,112,0.0,-999.0,98,-99.99,,,1.03,Acu-Link.com,2013-02-28 04:33:00,
2013-02-27 23:49:00,37.2,36.7,29.57,West,270,0.0,-999.0,98,-99.99,,,1.03,Acu-Link.com,2013-02-28 04:49:00,